Pagina principale
METAR-TAF:

METAR-TAF

Aeroporti :

Aeroporto d'Engadina

Sankt Moritz, Svizzera

latitudine: 46-32-03N, longitudine: 9-53-03E, altezza: 1707 m

Osservazione

Il bollettino è stato emesso 35 minuti fa, alle 15:50 UTC
Vento 11 kt da sud/sud-ovest, variando fra sud e ovest/sud-ovest
Temperature 13°C
Umidità 58%
Pressione 1012 hPa
Visibilità 10 km o più
Nubi sparse ad un'altezza di 7500 ft

METAR: LSZS 151550Z 21011KT 180V240 9999 SCT075 13/05 Q1012 RMK V TL180

Ora: 18:25 (16:25 UTC)

Previsione

Il bollettino è stato emesso 2 ore e 0 minuti fa, alle 14:25 UTC
Previsione valida dal 15 alle 15 UTC al 15 alle 24 UTC
Vento 15 kt da sud-ovest
Visibilità 10 km o più
Nubi sparse ad un'altezza di 8000 ft
Evoluzione graduale
dal 15 alle 17 UTC al 15 alle 19 UTC
Vento 5 kt da sud-ovest

TAF: LSZS 151425Z 1515/1524 22015KT 9999 SCT080 TX13/1515Z BECMG 1517/1519 22005KT

Osservazioni e previsioni meteorologiche di più di 4000 aeroporti (messaggi METAR e TAF).

Le stazioni disponibili sono rappresentate dai dischi gialli e rossi sulla carta.

Puntare il mouse per vedere il nome della stazione.

Clicca sopra per visualizzare le osservazioni e previsioni meteorologiche.

Per cambiare la mappa : fare clic sui pulsanti verdi con una croce nera per ingrandire, il pulsante verde con un trattino per diminuire, o sulla freccia verde per le mappe adiacenti.


METAR-TAF: